createdAt,value
2018-05-11T00:01:46.514Z,11.25
2018-05-11T00:04:14.050Z,12.73
2018-05-11T00:06:41.830Z,11.52
2018-05-11T00:09:09.370Z,11.15
2018-05-11T00:11:36.868Z,10.65
2018-05-11T00:14:04.653Z,11.38
2018-05-11T00:16:32.155Z,12.00
2018-05-11T00:18:59.670Z,11.32
2018-05-11T00:21:27.490Z,12.37
2018-05-11T00:23:55.036Z,11.23
2018-05-11T00:26:22.518Z,10.45
2018-05-11T00:28:50.286Z,9.18
2018-05-11T00:31:17.800Z,9.77
2018-05-11T00:33:46.060Z,10.40
2018-05-11T00:36:13.870Z,9.00
2018-05-11T00:38:41.375Z,10.40
2018-05-11T00:41:09.639Z,9.20
2018-05-11T00:43:37.382Z,9.45
2018-05-11T00:46:04.914Z,9.45
2018-05-11T00:48:32.402Z,8.90
2018-05-11T00:51:00.218Z,10.82
2018-05-11T00:53:27.694Z,10.00
2018-05-11T00:55:55.181Z,8.15
2018-05-11T00:58:22.994Z,8.50
2018-05-11T01:00:50.482Z,9.40
2018-05-11T01:03:17.978Z,9.90
2018-05-11T01:05:45.763Z,9.20
2018-05-11T01:08:13.247Z,8.80
2018-05-11T01:10:40.773Z,9.48
2018-05-11T01:13:08.590Z,8.70
2018-05-11T01:15:36.126Z,9.00
2018-05-11T01:18:03.610Z,8.70
2018-05-11T01:20:31.390Z,9.50
2018-05-11T01:22:58.931Z,8.85
2018-05-11T01:25:26.410Z,9.40
2018-05-11T01:27:54.148Z,8.50
2018-05-11T01:30:21.627Z,9.80
2018-05-11T01:32:49.146Z,8.73
2018-05-11T01:35:16.931Z,8.43
2018-05-11T01:37:44.413Z,9.00
2018-05-11T01:40:11.896Z,8.20
2018-05-11T01:42:39.722Z,9.23
2018-05-11T01:45:07.212Z,8.88
2018-05-11T01:47:34.722Z,8.45
2018-05-11T01:50:02.469Z,8.70
2018-05-11T01:52:29.955Z,9.40
2018-05-11T01:54:57.423Z,8.93
2018-05-11T01:57:25.189Z,9.10
2018-05-11T01:59:52.653Z,9.13
2018-05-11T02:02:20.270Z,9.45
2018-05-11T02:04:48.070Z,8.80
2018-05-11T02:07:16.350Z,9.20
2018-05-11T02:09:43.829Z,9.50
2018-05-11T02:12:12.374Z,8.95
2018-05-11T02:14:39.849Z,9.63
2018-05-11T02:17:07.335Z,9.45
2018-05-11T02:19:35.223Z,9.45
2018-05-11T02:22:02.696Z,9.38
2018-05-11T02:24:30.171Z,11.05
2018-05-11T02:26:57.939Z,8.43
2018-05-11T02:29:25.439Z,9.20
2018-05-11T02:31:52.923Z,9.60
2018-05-11T02:34:20.739Z,7.80
2018-05-11T02:36:48.231Z,9.73
2018-05-11T02:39:15.730Z,10.25
2018-05-11T02:41:43.487Z,9.07
2018-05-11T02:44:10.982Z,9.55
2018-05-11T02:46:38.526Z,9.80
2018-05-11T02:49:06.326Z,10.25
2018-05-11T02:51:34.593Z,8.85
2018-05-11T02:54:02.056Z,7.97
2018-05-11T02:56:30.601Z,9.80
2018-05-11T02:58:58.102Z,9.57
2018-05-11T03:01:25.564Z,8.95
2018-05-11T03:03:53.395Z,9.00
2018-05-11T03:06:20.879Z,8.20
2018-05-11T03:08:48.370Z,9.10
2018-05-11T03:11:16.155Z,8.20
2018-05-11T03:13:43.653Z,9.15
2018-05-11T03:16:11.974Z,9.65
2018-05-11T03:18:39.857Z,9.15
2018-05-11T03:21:07.333Z,8.75
2018-05-11T03:23:34.847Z,9.27
2018-05-11T03:26:02.666Z,9.13
2018-05-11T03:28:30.155Z,8.82
2018-05-11T03:30:57.680Z,8.63
2018-05-11T03:33:25.462Z,9.50
2018-05-11T03:35:53.065Z,9.38
2018-05-11T03:38:20.583Z,8.90
2018-05-11T03:40:48.341Z,8.88
2018-05-11T03:43:16.581Z,8.75
2018-05-11T03:45:44.067Z,9.55
2018-05-11T03:48:11.905Z,9.15
2018-05-11T03:50:39.395Z,8.65
2018-05-11T03:53:06.906Z,8.38
2018-05-11T03:55:34.712Z,8.90
2018-05-11T03:58:02.950Z,9.00
2018-05-11T04:00:30.438Z,8.50
2018-05-11T04:03:10.666Z,8.00
2018-05-11T04:05:52.229Z,8.75
2018-05-11T04:08:31.520Z,8.55
2018-05-11T04:10:59.767Z,9.23
2018-05-11T04:13:27.268Z,9.07
2018-05-11T04:15:55.028Z,9.13
2018-05-11T04:18:22.525Z,8.65
2018-05-11T04:20:50.066Z,8.88
2018-05-11T04:23:18.586Z,9.10
2018-05-11T04:25:46.058Z,9.70
2018-05-11T04:28:13.570Z,9.68
2018-05-11T04:30:41.320Z,9.73
2018-05-11T04:33:08.833Z,9.48
2018-05-11T04:35:36.342Z,10.38
2018-05-11T04:38:04.094Z,10.15
2018-05-11T04:40:31.607Z,10.23
2018-05-11T04:42:59.087Z,9.73
2018-05-11T04:45:27.596Z,10.30
2018-05-11T04:47:55.111Z,10.32
2018-05-11T04:50:23.362Z,11.48
2018-05-11T04:52:51.138Z,10.75
2018-05-11T04:55:18.922Z,10.88
2018-05-11T04:57:47.170Z,11.30
2018-05-11T05:00:14.996Z,10.57
2018-05-11T05:02:42.490Z,11.40
2018-05-11T05:05:09.950Z,11.60
2018-05-11T05:07:37.721Z,11.40
2018-05-11T05:10:05.305Z,10.70
2018-05-11T05:12:32.814Z,11.55
2018-05-11T05:15:00.633Z,11.12
2018-05-11T05:17:28.891Z,10.20
2018-05-11T05:19:56.375Z,10.20
2018-05-11T05:22:24.179Z,9.38
2018-05-11T05:24:51.715Z,8.63
2018-05-11T05:27:19.212Z,8.38
2018-05-11T05:29:47.036Z,8.20
2018-05-11T05:32:14.578Z,8.65
2018-05-11T05:34:42.064Z,7.82
2018-05-11T05:37:09.894Z,7.68
2018-05-11T05:39:38.151Z,8.13
2018-05-11T05:42:06.441Z,7.37
2018-05-11T05:44:35.026Z,8.93
2018-05-11T05:47:03.269Z,7.28
2018-05-11T05:49:30.790Z,6.87
2018-05-11T05:51:58.603Z,8.10
2018-05-11T05:54:26.034Z,7.47
2018-05-11T05:56:53.560Z,7.75
2018-05-11T05:59:21.361Z,6.57
2018-05-11T06:01:48.846Z,7.20
2018-05-11T06:04:17.134Z,7.30
2018-05-11T06:06:45.738Z,7.43
2018-05-11T06:09:13.223Z,7.07
2018-05-11T06:11:40.746Z,6.68
2018-05-11T06:14:08.547Z,7.10
2018-05-11T06:16:36.045Z,6.82
2018-05-11T06:19:04.295Z,7.70
2018-05-11T06:21:32.087Z,7.45
2018-05-11T06:24:00.337Z,7.20
2018-05-11T06:26:27.846Z,7.72
2018-05-11T06:28:55.589Z,7.80
2018-05-11T06:31:23.926Z,7.30
2018-05-11T06:33:51.422Z,7.68
2018-05-11T06:36:19.226Z,8.35
2018-05-11T06:38:46.747Z,7.28
2018-05-11T06:41:15.075Z,8.32
2018-05-11T06:43:42.831Z,7.27
2018-05-11T06:46:10.324Z,9.03
2018-05-11T06:48:38.617Z,8.03
2018-05-11T06:51:07.235Z,7.20
2018-05-11T06:53:34.778Z,6.77
2018-05-11T06:56:02.317Z,8.43
2018-05-11T06:58:30.899Z,6.97
2018-05-11T07:00:59.222Z,6.30
2018-05-11T07:03:26.695Z,7.03
2018-05-11T07:05:54.439Z,7.67
2018-05-11T07:08:22.424Z,6.80
2018-05-11T07:10:49.971Z,6.90
2018-05-11T07:13:17.730Z,8.07
2018-05-11T07:15:45.228Z,6.30
2018-05-11T07:18:12.702Z,6.57
2018-05-11T07:20:40.997Z,5.80
2018-05-11T07:23:09.243Z,6.73
2018-05-11T07:25:36.790Z,5.60
2018-05-11T07:28:04.263Z,5.30
2018-05-11T07:30:31.745Z,6.10
2018-05-11T07:33:00.048Z,4.93
2018-05-11T07:35:27.534Z,5.53
2018-05-11T07:37:55.872Z,6.13
2018-05-11T07:40:23.465Z,5.10
2018-05-11T07:42:51.000Z,5.83
2018-05-11T07:45:18.488Z,5.80
2018-05-11T07:47:46.135Z,5.97
2018-05-11T07:50:13.630Z,6.10
2018-05-11T07:52:41.866Z,6.13
2018-05-11T07:55:09.358Z,4.30
2018-05-11T07:57:36.870Z,4.10
2018-05-11T08:00:04.338Z,4.47
2018-05-11T08:02:31.855Z,4.50
2018-05-11T08:04:59.357Z,4.50
2018-05-11T08:07:26.820Z,4.97
2018-05-11T08:09:54.327Z,4.50
2018-05-11T08:12:21.824Z,4.37
2018-05-11T08:14:49.317Z,4.70
2018-05-11T08:17:16.864Z,4.07
2018-05-11T08:19:44.354Z,4.57
2018-05-11T08:22:12.888Z,3.70
2018-05-11T08:24:40.379Z,3.80
2018-05-11T08:27:08.674Z,3.60
2018-05-11T08:29:36.148Z,3.90
2018-05-11T08:32:03.622Z,4.03
2018-05-11T08:34:31.142Z,2.70
2018-05-11T08:36:58.644Z,2.53
2018-05-11T08:39:26.159Z,3.60
2018-05-11T08:41:54.402Z,3.37
2018-05-11T08:44:21.870Z,3.60
2018-05-11T08:46:50.119Z,3.33
2018-05-11T08:49:17.605Z,3.60
2018-05-11T08:51:45.064Z,3.70
2018-05-11T08:54:13.306Z,4.50
2018-05-11T08:56:40.810Z,3.70
2018-05-11T08:59:08.312Z,3.50
2018-05-11T09:01:35.782Z,4.77
2018-05-11T09:04:03.280Z,4.17
2018-05-11T09:06:31.595Z,3.90
2018-05-11T09:08:59.098Z,3.83
2018-05-11T09:11:26.661Z,4.50
2018-05-11T09:13:55.018Z,4.03
2018-05-11T09:16:22.496Z,4.27
2018-05-11T09:18:50.993Z,4.83
2018-05-11T09:21:18.506Z,4.93
2018-05-11T09:23:45.961Z,3.80
2018-05-11T09:26:13.706Z,4.20
2018-05-11T09:28:41.180Z,4.00
2018-05-11T09:31:08.684Z,4.27
2018-05-11T09:33:36.171Z,4.23
2018-05-11T09:36:03.686Z,5.10
2018-05-11T09:38:31.967Z,4.80
2018-05-11T09:41:00.232Z,4.00
2018-05-11T09:43:28.480Z,3.63
2018-05-11T09:45:55.952Z,4.17
2018-05-11T09:48:23.431Z,3.13
2018-05-11T09:50:50.947Z,3.77
2018-05-11T09:53:18.448Z,3.90
2018-05-11T09:55:45.976Z,3.90
2018-05-11T09:58:13.478Z,3.17
2018-05-11T10:00:40.949Z,2.33
2018-05-11T10:03:08.542Z,4.50
2018-05-11T10:05:36.050Z,4.20
2018-05-11T10:08:03.531Z,4.73
2018-05-11T10:10:31.032Z,3.70
2018-05-11T10:12:59.672Z,4.20
2018-05-11T10:15:27.331Z,4.57
2018-05-11T10:17:55.673Z,4.40
2018-05-11T10:20:23.175Z,4.30
2018-05-11T10:22:50.636Z,5.20
2018-05-11T10:25:18.132Z,4.40
2018-05-11T10:27:46.382Z,4.00
2018-05-11T10:30:13.862Z,4.70
2018-05-11T10:32:41.358Z,4.57
2018-05-11T10:35:08.861Z,4.97
2018-05-11T10:37:36.333Z,4.47
2018-05-11T10:40:04.618Z,4.50
2018-05-11T10:42:32.923Z,4.70
2018-05-11T10:45:00.454Z,4.80
2018-05-11T10:47:28.712Z,4.40
2018-05-11T10:49:56.192Z,4.60
2018-05-11T10:52:24.445Z,4.27
2018-05-11T10:54:51.934Z,4.80
2018-05-11T10:57:20.195Z,5.10
2018-05-11T10:59:48.490Z,5.33
2018-05-11T11:02:16.066Z,5.53
2018-05-11T11:04:44.352Z,5.13
2018-05-11T11:07:11.934Z,4.57
2018-05-11T11:09:39.437Z,4.00
2018-05-11T11:12:06.931Z,4.53
2018-05-11T11:14:34.404Z,4.67
2018-05-11T11:17:01.956Z,5.20
2018-05-11T11:19:29.436Z,4.67
2018-05-11T11:21:56.982Z,5.60
2018-05-11T11:24:24.489Z,5.20
2018-05-11T11:26:52.853Z,6.47
2018-05-11T11:29:21.108Z,4.87
2018-05-11T11:31:49.370Z,5.40
2018-05-11T11:34:16.867Z,4.67
2018-05-11T11:36:45.117Z,5.10
2018-05-11T11:39:12.588Z,5.63
2018-05-11T11:41:40.831Z,5.20
2018-05-11T11:44:08.289Z,5.53
2018-05-11T11:46:35.777Z,5.70
2018-05-11T11:49:03.289Z,6.70
2018-05-11T11:51:30.801Z,5.50
2018-05-11T11:53:59.338Z,5.37
2018-05-11T11:56:26.876Z,5.80
2018-05-11T11:58:54.301Z,6.40
2018-05-11T12:01:21.823Z,5.33
2018-05-11T12:03:49.318Z,6.20
2018-05-11T12:06:16.820Z,6.03
2018-05-11T12:08:44.313Z,6.13
2018-05-11T12:11:12.542Z,6.00
2018-05-11T12:13:40.024Z,6.30
2018-05-11T12:16:07.541Z,7.80
2018-05-11T12:18:35.058Z,6.53
2018-05-11T12:21:02.522Z,7.10
2018-05-11T12:23:31.109Z,7.57
2018-05-11T12:25:59.348Z,7.03
2018-05-11T12:28:26.826Z,6.63
2018-05-11T12:30:55.095Z,7.70
2018-05-11T12:33:22.617Z,7.97
2018-05-11T12:35:50.074Z,7.80
2018-05-11T12:38:17.551Z,6.70
2018-05-11T12:40:45.058Z,7.57
2018-05-11T12:43:12.538Z,7.50
2018-05-11T12:45:40.039Z,7.47
2018-05-11T12:48:07.499Z,7.57
2018-05-11T12:50:35.783Z,7.90
2018-05-11T12:53:03.265Z,8.03
2018-05-11T12:55:31.504Z,7.73
2018-05-11T12:57:58.997Z,7.90
2018-05-11T13:00:26.513Z,8.00
2018-05-11T13:02:54.006Z,7.37
2018-05-11T13:05:22.278Z,7.80
2018-05-11T13:07:50.539Z,7.67
2018-05-11T13:10:18.018Z,8.00
2018-05-11T13:12:46.278Z,8.70
2018-05-11T13:15:14.651Z,8.30
2018-05-11T13:17:42.936Z,8.17
2018-05-11T13:20:11.179Z,8.67
2018-05-11T13:22:38.877Z,8.40
2018-05-11T13:25:07.190Z,7.77
2018-05-11T13:27:34.726Z,8.30
2018-05-11T13:30:02.206Z,8.27
2018-05-11T13:32:29.703Z,8.50
2018-05-11T13:34:57.217Z,9.37
2018-05-11T13:37:24.694Z,8.80
2018-05-11T13:39:52.183Z,9.00
2018-05-11T13:42:19.654Z,8.63
2018-05-11T13:44:47.921Z,8.37
2018-05-11T13:47:16.195Z,8.77
2018-05-11T13:49:43.661Z,9.20
2018-05-11T13:52:12.158Z,9.53
2018-05-11T13:54:39.642Z,9.00
2018-05-11T13:57:07.132Z,10.10
2018-05-11T13:59:34.651Z,8.70
2018-05-11T14:02:02.114Z,7.90
2018-05-11T14:04:29.591Z,8.33
2018-05-11T14:06:57.382Z,8.40
2018-05-11T14:09:24.840Z,8.80
2018-05-11T14:11:53.091Z,9.50
2018-05-11T14:14:20.575Z,10.33
2018-05-11T14:16:48.819Z,10.00
2018-05-11T14:19:16.303Z,9.70
2018-05-11T14:21:44.559Z,9.10
2018-05-11T14:24:12.047Z,9.30
2018-05-11T14:26:39.600Z,9.13
2018-05-11T14:29:07.126Z,9.00
2018-05-11T14:31:34.613Z,9.97
2018-05-11T14:34:02.125Z,8.90
2018-05-11T14:36:29.629Z,10.33
2018-05-11T14:38:57.895Z,10.20
2018-05-11T14:41:25.384Z,10.30
2018-05-11T14:43:53.175Z,11.13
2018-05-11T14:46:20.666Z,10.13
2018-05-11T14:48:48.158Z,10.47
2018-05-11T14:51:15.998Z,10.10
2018-05-11T14:53:43.462Z,10.60
2018-05-11T14:56:11.738Z,9.43
2018-05-11T14:58:40.029Z,12.10
2018-05-11T15:01:07.523Z,10.33
2018-05-11T15:03:35.051Z,10.50
2018-05-11T15:06:02.555Z,10.70
2018-05-11T15:08:30.047Z,10.20
2018-05-11T15:10:58.295Z,11.03
2018-05-11T15:13:26.054Z,11.00
2018-05-11T15:15:53.538Z,10.70
2018-05-11T15:18:21.822Z,10.80
2018-05-11T15:20:50.087Z,12.80
2018-05-11T15:23:18.226Z,10.80
2018-05-11T15:25:45.739Z,12.43
2018-05-11T15:28:13.263Z,12.03
2018-05-11T15:30:40.754Z,11.50
2018-05-11T15:33:08.246Z,11.07
2018-05-11T15:35:35.753Z,11.90
2018-05-11T15:38:04.012Z,12.50
2018-05-11T15:40:31.597Z,12.57
2018-05-11T15:42:59.050Z,12.77
2018-05-11T15:45:27.305Z,12.27
2018-05-11T15:47:54.809Z,12.50
2018-05-11T15:50:22.314Z,13.80
2018-05-11T15:52:49.834Z,13.50
2018-05-11T15:55:17.331Z,13.10
2018-05-11T15:57:44.954Z,13.63
2018-05-11T16:00:12.456Z,14.40
2018-05-11T16:02:39.955Z,15.30
2018-05-11T16:05:07.451Z,16.00
2018-05-11T16:07:35.281Z,15.57
2018-05-11T16:10:02.762Z,16.27
2018-05-11T16:12:30.332Z,16.40
2018-05-11T16:14:57.774Z,15.87
2018-05-11T16:17:25.272Z,17.77
2018-05-11T16:19:53.566Z,17.30
2018-05-11T16:22:21.808Z,17.43
2018-05-11T16:24:49.332Z,17.07
2018-05-11T16:27:16.827Z,20.20
2018-05-11T16:29:44.310Z,18.67
2018-05-11T16:32:11.890Z,18.10
2018-05-11T16:34:39.379Z,18.30
2018-05-11T16:37:06.878Z,19.10
2018-05-11T16:39:35.242Z,20.93
2018-05-11T16:42:02.695Z,23.27
2018-05-11T16:44:30.175Z,24.97
2018-05-11T16:46:58.448Z,25.50
2018-05-11T16:49:25.965Z,25.60
2018-05-11T16:51:53.454Z,27.83
2018-05-11T16:54:21.689Z,27.40
2018-05-11T16:56:49.467Z,28.37
2018-05-11T16:59:16.996Z,28.40
2018-05-11T17:01:44.485Z,31.03
2018-05-11T17:04:12.329Z,29.50
2018-05-11T17:06:39.810Z,31.03
2018-05-11T17:09:07.281Z,29.90
2018-05-11T17:11:35.827Z,31.30
2018-05-11T17:14:03.316Z,34.33
2018-05-11T17:16:30.860Z,33.73
2018-05-11T17:18:58.638Z,35.60
2018-05-11T17:21:26.134Z,37.00
2018-05-11T17:23:53.640Z,35.10
2018-05-11T17:26:21.411Z,35.37
2018-05-11T17:28:48.964Z,36.50
2018-05-11T17:31:16.438Z,35.80
2018-05-11T17:33:44.175Z,35.27
2018-05-11T17:36:11.682Z,34.60
2018-05-11T17:38:39.179Z,33.90
2018-05-11T17:41:07.096Z,35.07
2018-05-11T17:43:35.390Z,35.60
2018-05-11T17:46:02.915Z,34.50
2018-05-11T17:48:31.240Z,35.50
2018-05-11T17:50:58.722Z,35.73
2018-05-11T17:53:26.222Z,35.37
2018-05-11T17:55:54.781Z,37.37
2018-05-11T17:58:22.261Z,36.97
2018-05-11T18:00:49.797Z,35.07
2018-05-11T18:03:17.699Z,37.07
2018-05-11T18:05:45.190Z,36.50
2018-05-11T18:08:12.733Z,35.27
2018-05-11T18:10:40.226Z,35.67
2018-05-11T18:13:07.724Z,37.40
2018-05-11T18:15:35.986Z,35.87
2018-05-11T18:18:03.799Z,36.63
2018-05-11T18:20:31.291Z,36.97
2018-05-11T18:22:58.788Z,36.87
2018-05-11T18:25:26.605Z,37.87
2018-05-11T18:27:54.131Z,38.27
2018-05-11T18:30:21.729Z,38.10
2018-05-11T18:32:49.546Z,38.80
2018-05-11T18:35:17.034Z,39.40
2018-05-11T18:37:44.518Z,38.17
2018-05-11T18:40:12.350Z,39.70
2018-05-11T18:42:40.550Z,38.27
2018-05-11T18:45:08.030Z,38.47
2018-05-11T18:47:35.560Z,39.17
2018-05-11T18:50:03.068Z,38.73
2018-05-11T18:52:31.114Z,39.10
2018-05-11T18:54:59.379Z,38.10
2018-05-11T18:57:26.861Z,37.70
2018-05-11T18:59:54.369Z,38.37
2018-05-11T19:02:22.190Z,38.20
2018-05-11T19:04:49.688Z,38.57
2018-05-11T19:07:17.167Z,36.57
2018-05-11T19:09:44.999Z,36.57
2018-05-11T19:12:12.475Z,37.97
2018-05-11T19:14:39.958Z,37.43
2018-05-11T19:17:08.261Z,37.17
2018-05-11T19:19:35.747Z,37.70
2018-05-11T19:22:06.135Z,36.20
2018-05-11T19:24:33.891Z,37.60
2018-05-11T19:27:02.181Z,36.97
2018-05-11T19:29:29.668Z,34.47
2018-05-11T19:31:57.535Z,36.40
2018-05-11T19:34:25.055Z,36.53
2018-05-11T19:36:52.574Z,35.83
2018-05-11T19:39:20.072Z,36.50
2018-05-11T19:41:47.575Z,36.43
2018-05-11T19:44:15.046Z,36.60
2018-05-11T19:46:42.569Z,36.70
2018-05-11T19:49:10.976Z,37.10
2018-05-11T19:51:38.486Z,37.90
2018-05-11T19:54:05.992Z,35.30
2018-05-11T19:56:33.495Z,35.43
2018-05-11T19:59:01.046Z,37.23
2018-05-11T20:01:29.553Z,36.20
2018-05-11T20:03:57.195Z,37.70
2018-05-11T20:06:25.682Z,36.53
2018-05-11T20:08:53.530Z,35.97
2018-05-11T20:11:21.789Z,37.33
2018-05-11T20:13:49.278Z,36.43
2018-05-11T20:16:17.079Z,36.63
2018-05-11T20:18:44.589Z,37.10
2018-05-11T20:21:12.835Z,36.97
2018-05-11T20:23:40.692Z,38.40
2018-05-11T20:26:08.117Z,35.53
2018-05-11T20:28:35.628Z,37.37
2018-05-11T20:31:04.218Z,36.43
2018-05-11T20:33:32.472Z,37.33
2018-05-11T20:35:59.981Z,37.33
2018-05-11T20:38:27.746Z,36.40
2018-05-11T20:40:55.266Z,36.00
2018-05-11T20:43:22.754Z,37.77
2018-05-11T20:45:50.506Z,35.03
2018-05-11T20:48:18.753Z,35.27
2018-05-11T20:50:46.382Z,35.30
2018-05-11T20:53:14.183Z,36.57
2018-05-11T20:55:41.701Z,35.13
2018-05-11T20:58:09.198Z,36.27
2018-05-11T21:00:37.043Z,36.20
2018-05-11T21:03:04.532Z,34.47
2018-05-11T21:05:32.033Z,35.03
2018-05-11T21:08:00.802Z,34.20
2018-05-11T21:10:28.282Z,33.63
2018-05-11T21:12:55.766Z,34.53
2018-05-11T21:15:23.555Z,33.30
2018-05-11T21:17:51.824Z,33.17
2018-05-11T21:20:19.306Z,33.03
2018-05-11T21:22:47.916Z,31.23
2018-05-11T21:25:15.418Z,30.70
2018-05-11T21:27:42.911Z,31.70
2018-05-11T21:30:10.702Z,31.20
2018-05-11T21:32:38.191Z,30.60
2018-05-11T21:35:05.675Z,30.20
2018-05-11T21:37:33.943Z,30.57
2018-05-11T21:40:02.233Z,28.37
2018-05-11T21:42:29.717Z,27.10
2018-05-11T21:44:57.591Z,27.47
2018-05-11T21:47:25.092Z,27.17
2018-05-11T21:49:52.623Z,26.30
2018-05-11T21:52:20.422Z,26.90
2018-05-11T21:54:48.807Z,25.20
2018-05-11T21:57:17.116Z,26.90
2018-05-11T21:59:44.898Z,26.40
2018-05-11T22:02:12.447Z,25.93
2018-05-11T22:04:39.945Z,25.83
2018-05-11T22:07:07.479Z,25.30
2018-05-11T22:09:34.985Z,24.03
2018-05-11T22:12:03.250Z,24.00
2018-05-11T22:14:31.505Z,22.70
2018-05-11T22:16:59.002Z,23.47
2018-05-11T22:19:26.487Z,23.13
2018-05-11T22:21:54.250Z,24.07
2018-05-11T22:24:21.711Z,24.87
2018-05-11T22:26:49.203Z,24.53
2018-05-11T22:29:16.974Z,25.00
2018-05-11T22:31:44.466Z,24.80
2018-05-11T22:34:11.954Z,24.20
2018-05-11T22:36:39.734Z,25.70
2018-05-11T22:39:07.232Z,23.50
2018-05-11T22:41:34.722Z,24.40
2018-05-11T22:44:02.512Z,24.90
2018-05-11T22:46:29.999Z,23.70
2018-05-11T22:48:58.285Z,24.33
2018-05-11T22:51:26.045Z,24.57
2018-05-11T22:53:53.588Z,22.73
2018-05-11T22:56:21.867Z,24.20
2018-05-11T22:58:50.461Z,23.10
2018-05-11T23:01:17.976Z,23.15
2018-05-11T23:03:45.531Z,24.23
2018-05-11T23:06:14.229Z,22.25
2018-05-11T23:08:41.722Z,24.43
2018-05-11T23:11:09.209Z,24.02
2018-05-11T23:13:36.994Z,25.80
2018-05-11T23:16:04.491Z,22.62
2018-05-11T23:18:32.755Z,22.85
2018-05-11T23:21:01.378Z,22.30
2018-05-11T23:23:28.850Z,23.35
2018-05-11T23:25:56.365Z,21.67
2018-05-11T23:28:24.930Z,21.20
2018-05-11T23:30:52.410Z,24.10
2018-05-11T23:33:19.912Z,20.70
2018-05-11T23:35:47.408Z,22.97
2018-05-11T23:38:14.902Z,21.67
2018-05-11T23:40:42.404Z,21.07
2018-05-11T23:43:10.197Z,20.67
2018-05-11T23:45:38.453Z,20.77
2018-05-11T23:48:05.943Z,20.35
2018-05-11T23:50:34.479Z,20.90
2018-05-11T23:53:01.975Z,19.70
2018-05-11T23:55:30.263Z,18.52
2018-05-11T23:57:58.079Z,17.95
